createdAt,value
2023-01-07T00:02:02.146Z,20.40
2023-01-07T00:04:30.153Z,21.97
2023-01-07T00:06:59.433Z,20.87
2023-01-07T00:09:27.430Z,18.63
2023-01-07T00:11:55.546Z,16.97
2023-01-07T00:14:23.534Z,16.20
2023-01-07T00:16:53.003Z,17.67
2023-01-07T00:19:22.284Z,15.70
2023-01-07T00:21:50.307Z,16.43
2023-01-07T00:24:18.658Z,16.10
2023-01-07T00:26:47.057Z,15.57
2023-01-07T00:29:15.060Z,14.07
2023-01-07T00:31:43.091Z,17.03
2023-01-07T00:34:13.152Z,16.23
2023-01-07T00:36:43.397Z,16.10
2023-01-07T00:39:14.902Z,18.70
2023-01-07T00:42:05.433Z,15.93
2023-01-07T00:44:34.148Z,18.50
2023-01-07T00:47:02.542Z,17.30
2023-01-07T00:49:32.103Z,18.50
2023-01-07T00:52:00.263Z,17.93
2023-01-07T00:54:28.365Z,16.63
2023-01-07T00:56:56.634Z,16.20
2023-01-07T00:59:24.744Z,16.10
2023-01-07T01:01:52.888Z,15.60
2023-01-07T01:04:21.105Z,16.93
2023-01-07T01:06:50.653Z,17.07
2023-01-07T01:09:20.677Z,16.60
2023-01-07T01:11:48.910Z,17.13
2023-01-07T01:14:16.963Z,16.20
2023-01-07T01:16:47.275Z,26.03
2023-01-07T01:19:15.789Z,15.13
2023-01-07T01:21:44.102Z,15.83
2023-01-07T01:24:14.879Z,17.10
2023-01-07T01:26:43.040Z,15.33
2023-01-07T01:29:11.092Z,13.50
2023-01-07T01:31:39.900Z,16.23
2023-01-07T01:34:08.057Z,15.60
2023-01-07T01:36:37.056Z,15.60
2023-01-07T01:39:05.928Z,15.10
2023-01-07T01:41:38.068Z,17.30
2023-01-07T01:44:42.563Z,14.43
2023-01-07T01:47:20.741Z,15.90
2023-01-07T01:49:55.186Z,16.20
2023-01-07T01:52:29.451Z,12.33
2023-01-07T01:55:02.135Z,14.70
2023-01-07T01:57:34.184Z,15.07
2023-01-07T02:00:03.716Z,16.23
2023-01-07T02:02:46.853Z,15.70
2023-01-07T02:05:16.694Z,14.53
2023-01-07T02:07:44.805Z,14.53
2023-01-07T02:10:16.411Z,15.00
2023-01-07T02:13:00.933Z,15.80
2023-01-07T02:15:39.574Z,14.20
2023-01-07T02:18:20.264Z,15.93
2023-01-07T02:21:12.262Z,16.07
2023-01-07T02:24:16.352Z,14.63
2023-01-07T02:27:15.556Z,14.83
2023-01-07T02:30:19.933Z,18.60
2023-01-07T02:33:09.592Z,14.30
2023-01-07T02:35:49.736Z,14.40
2023-01-07T02:38:27.261Z,17.37
2023-01-07T02:41:04.843Z,16.17
2023-01-07T02:43:42.203Z,14.73
2023-01-07T02:46:18.779Z,13.37
2023-01-07T02:48:48.788Z,15.13
2023-01-07T02:51:16.840Z,15.27
2023-01-07T02:53:48.375Z,13.43
2023-01-07T02:56:31.144Z,12.93
2023-01-07T02:59:33.240Z,17.00
2023-01-07T03:02:27.715Z,22.03
2023-01-07T03:05:20.383Z,19.23
2023-01-07T03:08:02.177Z,27.13
2023-01-07T03:10:38.973Z,29.80
2023-01-07T03:13:12.803Z,23.90
2023-01-07T03:15:45.915Z,20.83
2023-01-07T03:18:20.380Z,14.40
2023-01-07T03:20:53.589Z,14.63
2023-01-07T03:23:24.846Z,14.60
2023-01-07T03:25:55.675Z,13.87
2023-01-07T03:28:29.578Z,14.40
2023-01-07T03:30:59.735Z,14.00
2023-01-07T03:33:34.232Z,13.50
2023-01-07T03:36:06.981Z,14.43
2023-01-07T03:38:38.521Z,15.47
2023-01-07T03:41:08.315Z,14.47
2023-01-07T03:43:35.429Z,15.07
2023-01-07T03:46:04.455Z,16.93
2023-01-07T03:48:32.624Z,12.50
2023-01-07T03:51:01.066Z,13.90
2023-01-07T03:53:30.644Z,15.00
2023-01-07T03:55:58.815Z,13.00
2023-01-07T03:58:26.926Z,13.70
2023-01-07T04:00:56.321Z,13.10
2023-01-07T04:03:24.557Z,14.40
2023-01-07T04:05:52.930Z,13.27
2023-01-07T04:08:21.278Z,14.57
2023-01-07T04:10:50.717Z,12.73
2023-01-07T04:13:19.406Z,12.73
2023-01-07T04:15:49.955Z,12.97
2023-01-07T04:18:18.128Z,13.57
2023-01-07T04:20:47.963Z,14.80
2023-01-07T04:23:17.838Z,12.50
2023-01-07T04:25:50.835Z,11.30
2023-01-07T04:28:23.066Z,10.87
2023-01-07T04:30:51.691Z,12.53
2023-01-07T04:33:20.104Z,10.10
2023-01-07T04:35:49.819Z,9.20
2023-01-07T04:38:19.357Z,10.97
2023-01-07T04:40:47.479Z,12.30
2023-01-07T04:43:16.933Z,9.60
2023-01-07T04:45:45.041Z,8.83
2023-01-07T04:48:14.530Z,19.60
2023-01-07T04:50:42.656Z,14.27
2023-01-07T04:53:11.078Z,13.43
2023-01-07T04:55:40.750Z,10.77
2023-01-07T04:58:09.073Z,11.20
2023-01-07T05:00:38.870Z,11.27
2023-01-07T05:03:07.384Z,15.53
2023-01-07T05:05:36.926Z,12.13
2023-01-07T05:08:06.129Z,12.03
2023-01-07T05:10:34.267Z,10.77
2023-01-07T05:13:06.898Z,11.97
2023-01-07T05:15:36.325Z,12.27
2023-01-07T05:18:06.374Z,10.30
2023-01-07T05:20:35.058Z,9.17
2023-01-07T05:23:05.665Z,10.53
2023-01-07T05:25:35.037Z,13.10
2023-01-07T05:28:03.404Z,9.27
2023-01-07T05:30:34.468Z,11.97
2023-01-07T05:33:07.248Z,10.80
2023-01-07T05:35:36.644Z,9.97
2023-01-07T05:38:05.273Z,11.77
2023-01-07T05:40:34.293Z,12.73
2023-01-07T05:43:02.319Z,15.37
2023-01-07T05:45:30.581Z,11.90
2023-01-07T05:47:58.622Z,11.70
2023-01-07T05:50:28.168Z,13.33
2023-01-07T05:52:56.234Z,13.30
2023-01-07T05:55:24.409Z,13.17
2023-01-07T05:57:52.485Z,13.53
2023-01-07T06:00:20.900Z,13.03
2023-01-07T06:02:49.102Z,12.87
2023-01-07T06:05:17.266Z,11.23
2023-01-07T06:07:47.338Z,12.20
2023-01-07T06:10:15.757Z,12.13
2023-01-07T06:12:43.843Z,12.60
2023-01-07T06:15:12.834Z,10.97
2023-01-07T06:17:40.983Z,10.63
2023-01-07T06:20:09.897Z,10.70
2023-01-07T06:22:37.957Z,12.63
2023-01-07T06:25:08.041Z,12.03
2023-01-07T06:27:36.294Z,12.47
2023-01-07T06:30:05.264Z,11.30
2023-01-07T06:32:33.358Z,13.80
2023-01-07T06:35:01.320Z,13.83
2023-01-07T06:37:29.372Z,10.47
2023-01-07T06:39:58.381Z,13.53
2023-01-07T06:42:28.388Z,11.00
2023-01-07T06:44:56.562Z,12.17
2023-01-07T06:47:25.406Z,11.93
2023-01-07T06:49:53.478Z,12.73
2023-01-07T06:52:21.512Z,12.47
2023-01-07T06:54:49.615Z,11.93
2023-01-07T06:57:17.682Z,11.37
2023-01-07T06:59:47.118Z,12.67
2023-01-07T07:02:20.188Z,12.27
2023-01-07T07:04:48.635Z,13.07
2023-01-07T07:07:17.347Z,14.70
2023-01-07T07:09:46.017Z,12.43
2023-01-07T07:12:14.541Z,13.03
2023-01-07T07:14:42.581Z,12.67
2023-01-07T07:17:12.372Z,16.13
2023-01-07T07:19:40.484Z,12.97
2023-01-07T07:22:08.505Z,15.13
2023-01-07T07:24:39.036Z,13.50
2023-01-07T07:27:08.413Z,11.90
2023-01-07T07:29:36.415Z,12.83
2023-01-07T07:32:04.625Z,13.00
2023-01-07T07:34:35.815Z,12.97
2023-01-07T07:37:04.396Z,13.03
2023-01-07T07:39:32.389Z,11.73
2023-01-07T07:42:03.202Z,13.00
2023-01-07T07:44:31.223Z,14.40
2023-01-07T07:46:59.421Z,13.70
2023-01-07T07:49:27.520Z,12.70
2023-01-07T07:51:57.125Z,12.07
2023-01-07T07:54:25.317Z,12.40
2023-01-07T07:56:53.325Z,13.90
2023-01-07T07:59:21.557Z,11.73
2023-01-07T08:01:50.438Z,14.00
2023-01-07T08:04:18.620Z,14.33
2023-01-07T08:06:46.728Z,12.10
2023-01-07T08:09:16.088Z,12.33
2023-01-07T08:11:45.174Z,11.70
2023-01-07T08:14:13.299Z,12.67
2023-01-07T08:16:41.252Z,12.40
2023-01-07T08:19:09.290Z,12.80
2023-01-07T08:21:37.399Z,11.40
2023-01-07T08:24:06.154Z,15.00
2023-01-07T08:26:36.427Z,12.67
2023-01-07T08:29:05.449Z,14.50
2023-01-07T08:31:33.644Z,11.87
2023-01-07T08:34:02.145Z,11.77
2023-01-07T08:36:30.120Z,15.60
2023-01-07T08:38:58.114Z,16.03
2023-01-07T08:41:26.763Z,15.87
2023-01-07T08:43:56.229Z,13.23
2023-01-07T08:46:24.294Z,12.47
2023-01-07T08:48:52.292Z,12.93
2023-01-07T08:51:20.486Z,12.27
2023-01-07T08:53:48.906Z,11.83
2023-01-07T08:56:17.019Z,12.10
2023-01-07T08:58:45.068Z,14.07
2023-01-07T09:01:14.597Z,12.63
2023-01-07T09:03:42.668Z,12.17
2023-01-07T09:06:10.926Z,13.00
2023-01-07T09:08:40.408Z,12.40
2023-01-07T09:11:08.531Z,13.73
2023-01-07T09:13:36.539Z,11.07
2023-01-07T09:16:04.908Z,11.87
2023-01-07T09:18:34.390Z,12.20
2023-01-07T09:21:03.207Z,10.37
2023-01-07T09:23:31.251Z,10.37
2023-01-07T09:25:59.354Z,11.07
2023-01-07T09:28:27.504Z,11.30
2023-01-07T09:30:56.892Z,11.10
2023-01-07T09:33:25.352Z,10.50
2023-01-07T09:35:54.655Z,13.40
2023-01-07T09:38:24.729Z,10.87
2023-01-07T09:40:53.858Z,13.00
2023-01-07T09:44:00.388Z,14.90
2023-01-07T09:46:18.531Z,9.97
2023-01-07T09:48:50.736Z,476.42
2023-01-07T09:51:24.850Z,11.80
2023-01-07T09:53:55.025Z,488.33
2023-01-07T09:56:27.544Z,563.47
2023-01-07T09:58:57.092Z,554.25
2023-01-07T10:01:29.216Z,557.17
2023-01-07T10:04:11.574Z,572.55
2023-01-07T10:06:49.465Z,558.50
2023-01-07T10:09:27.336Z,574.70
2023-01-07T10:12:03.116Z,578.95
2023-01-07T10:14:45.493Z,610.90
2023-01-07T10:17:24.009Z,558.73
2023-01-07T10:19:58.884Z,598.27
2023-01-07T10:22:36.704Z,583.92
2023-01-07T10:25:15.790Z,590.92
2023-01-07T10:27:46.329Z,613.13
2023-01-07T10:30:19.413Z,581.55
2023-01-07T10:32:49.806Z,573.20
2023-01-07T10:35:21.414Z,568.13
2023-01-07T10:37:51.520Z,616.85
2023-01-07T10:40:34.644Z,605.20
2023-01-07T10:43:12.592Z,653.58
2023-01-07T10:46:05.887Z,601.75
2023-01-07T10:48:48.352Z,607.95
2023-01-07T10:51:33.450Z,613.05
2023-01-07T10:54:15.388Z,613.33
2023-01-07T10:56:46.481Z,626.63
2023-01-07T10:59:18.350Z,614.55
2023-01-07T11:01:52.758Z,654.45
2023-01-07T11:04:21.028Z,577.25
2023-01-07T11:06:53.407Z,643.15
2023-01-07T11:09:28.184Z,618.97
2023-01-07T11:11:59.182Z,595.97
2023-01-07T11:14:31.786Z,663.90
2023-01-07T11:17:10.024Z,647.03
2023-01-07T11:19:49.138Z,657.85
2023-01-07T11:22:31.583Z,675.85
2023-01-07T11:25:02.677Z,663.78
2023-01-07T11:27:33.389Z,619.72
2023-01-07T11:30:04.429Z,678.80
2023-01-07T11:32:34.163Z,681.70
2023-01-07T11:35:04.083Z,653.15
2023-01-07T11:37:34.776Z,701.77
2023-01-07T11:40:18.541Z,683.83
2023-01-07T11:42:52.166Z,665.05
2023-01-07T11:45:22.511Z,698.60
2023-01-07T11:47:59.162Z,697.22
2023-01-07T11:50:31.431Z,643.22
2023-01-07T11:53:02.101Z,667.08
2023-01-07T11:55:32.040Z,659.90
2023-01-07T11:58:29.576Z,661.45
2023-01-07T12:01:14.218Z,680.03
2023-01-07T12:03:44.645Z,654.95
2023-01-07T12:06:20.011Z,685.33
2023-01-07T12:08:54.553Z,700.55
2023-01-07T12:11:32.345Z,720.78
2023-01-07T12:14:07.912Z,696.27
2023-01-07T12:16:37.215Z,670.40
2023-01-07T12:19:22.688Z,711.03
2023-01-07T12:22:03.936Z,707.03
2023-01-07T12:24:57.811Z,678.42
2023-01-07T12:27:35.993Z,690.30
2023-01-07T12:30:29.420Z,725.03
2023-01-07T12:33:07.348Z,661.57
2023-01-07T12:35:41.865Z,692.47
2023-01-07T12:38:14.742Z,700.05
2023-01-07T12:40:47.535Z,710.77
2023-01-07T12:43:22.711Z,694.50
2023-01-07T12:45:55.000Z,701.67
2023-01-07T12:48:29.989Z,674.83
2023-01-07T12:51:01.182Z,708.40
2023-01-07T12:53:34.920Z,701.28
2023-01-07T12:56:08.409Z,693.60
2023-01-07T12:58:45.874Z,657.28
2023-01-07T13:01:26.798Z,701.00
2023-01-07T13:04:03.935Z,708.78
2023-01-07T13:06:44.513Z,649.72
2023-01-07T13:09:25.551Z,720.83
2023-01-07T13:12:41.449Z,689.10
2023-01-07T13:15:12.445Z,701.72
2023-01-07T13:17:40.818Z,697.10
2023-01-07T13:20:14.161Z,662.55
2023-01-07T13:22:45.007Z,714.17
2023-01-07T13:25:35.931Z,722.80
2023-01-07T13:28:27.166Z,692.92
2023-01-07T13:31:19.706Z,728.55
2023-01-07T13:33:57.128Z,680.53
2023-01-07T13:36:35.618Z,666.42
2023-01-07T13:39:24.358Z,694.00
2023-01-07T13:42:07.523Z,662.73
2023-01-07T13:44:56.766Z,694.72
2023-01-07T13:47:28.259Z,673.05
2023-01-07T13:49:58.476Z,693.88
2023-01-07T13:52:30.020Z,697.35
2023-01-07T13:55:01.193Z,672.60
2023-01-07T13:57:43.209Z,652.67
2023-01-07T14:00:48.124Z,684.90
2023-01-07T14:03:40.362Z,702.90
2023-01-07T14:06:39.159Z,676.03
2023-01-07T14:09:35.724Z,697.20
2023-01-07T14:12:33.327Z,688.53
2023-01-07T14:15:40.169Z,732.38
2023-01-07T14:18:45.860Z,694.10
2023-01-07T14:21:33.501Z,744.72
2023-01-07T14:24:26.274Z,702.38
2023-01-07T14:27:03.296Z,763.83
2023-01-07T14:29:41.454Z,739.53
2023-01-07T14:32:26.089Z,723.83
2023-01-07T14:34:58.441Z,759.47
2023-01-07T14:37:35.713Z,814.33
2023-01-07T14:41:02.215Z,774.45
2023-01-07T14:44:01.043Z,813.13
2023-01-07T14:46:53.729Z,758.20
2023-01-07T14:49:58.164Z,757.47
2023-01-07T14:53:07.687Z,751.75
2023-01-07T14:56:03.250Z,791.08
2023-01-07T14:58:48.073Z,747.25
2023-01-07T15:01:39.555Z,755.40
2023-01-07T15:04:33.942Z,756.97
2023-01-07T15:07:02.936Z,738.38
2023-01-07T15:09:57.665Z,782.35
2023-01-07T15:12:48.922Z,696.05
2023-01-07T15:15:41.473Z,736.35
2023-01-07T15:18:10.919Z,739.60
2023-01-07T15:20:55.046Z,689.00
2023-01-07T15:23:28.642Z,709.75
2023-01-07T15:26:02.319Z,711.33
2023-01-07T15:28:39.016Z,653.38
2023-01-07T15:31:13.977Z,662.15
2023-01-07T15:33:58.301Z,651.75
2023-01-07T15:36:27.132Z,671.55
2023-01-07T15:38:58.288Z,660.57
2023-01-07T15:41:33.793Z,662.80
2023-01-07T15:44:07.165Z,664.55
2023-01-07T15:46:40.120Z,653.33
2023-01-07T15:49:25.018Z,649.80
2023-01-07T15:51:55.874Z,627.20
2023-01-07T15:54:26.624Z,617.20
2023-01-07T15:56:58.908Z,624.45
2023-01-07T15:59:30.739Z,627.00
2023-01-07T16:02:03.730Z,574.58
2023-01-07T16:04:34.159Z,615.50
2023-01-07T16:07:02.687Z,555.88
2023-01-07T16:09:33.977Z,586.03
2023-01-07T16:12:02.309Z,610.10
2023-01-07T16:14:38.050Z,594.13
2023-01-07T16:17:13.611Z,593.13
2023-01-07T16:19:41.798Z,569.05
2023-01-07T16:22:15.057Z,607.63
2023-01-07T16:24:48.885Z,550.97
2023-01-07T16:27:18.362Z,567.03
2023-01-07T16:29:52.693Z,576.17
2023-01-07T16:32:22.955Z,554.33
2023-01-07T16:35:00.400Z,585.80
2023-01-07T16:37:29.775Z,561.65
2023-01-07T16:39:58.099Z,548.38
2023-01-07T16:42:27.420Z,571.20
2023-01-07T16:45:03.261Z,554.30
2023-01-07T16:47:32.849Z,550.78
2023-01-07T16:50:40.590Z,572.00
2023-01-07T16:53:30.584Z,556.97
2023-01-07T16:56:15.590Z,567.92
2023-01-07T16:58:49.641Z,557.22
2023-01-07T17:01:21.024Z,554.60
2023-01-07T17:03:54.401Z,559.80
2023-01-07T17:06:28.905Z,556.70
2023-01-07T17:08:58.319Z,549.53
2023-01-07T17:11:32.623Z,565.30
2023-01-07T17:14:00.705Z,542.60
2023-01-07T17:16:32.261Z,548.55
2023-01-07T17:19:25.267Z,563.63
2023-01-07T17:21:54.225Z,541.10
2023-01-07T17:24:44.075Z,543.17
2023-01-07T17:27:21.524Z,545.10
2023-01-07T17:29:50.030Z,545.72
2023-01-07T17:32:19.720Z,557.30
2023-01-07T17:34:48.114Z,536.75
2023-01-07T17:37:17.010Z,540.10
2023-01-07T17:39:45.566Z,559.40
2023-01-07T17:42:41.908Z,540.40
2023-01-07T17:45:15.312Z,545.83
2023-01-07T17:47:45.370Z,535.85
2023-01-07T17:50:14.505Z,530.65
2023-01-07T17:52:44.178Z,556.28
2023-01-07T17:55:15.284Z,527.67
2023-01-07T17:57:43.640Z,538.47
2023-01-07T18:00:16.977Z,552.38
2023-01-07T18:02:47.294Z,535.55
2023-01-07T18:05:17.259Z,544.20
2023-01-07T18:07:45.690Z,539.95
2023-01-07T18:10:14.860Z,536.78
2023-01-07T18:12:43.593Z,557.13
2023-01-07T18:15:17.403Z,536.03
2023-01-07T18:17:47.409Z,539.47
2023-01-07T18:20:16.413Z,547.90
2023-01-07T18:22:45.213Z,526.67
2023-01-07T18:25:17.504Z,541.88
2023-01-07T18:27:46.643Z,534.67
2023-01-07T18:30:15.972Z,529.10
2023-01-07T18:32:44.362Z,542.15
2023-01-07T18:35:14.594Z,523.73
2023-01-07T18:37:43.017Z,531.80
2023-01-07T18:40:11.652Z,524.78
2023-01-07T18:42:40.013Z,524.10
2023-01-07T18:45:09.172Z,542.25
2023-01-07T18:47:37.594Z,519.80
2023-01-07T18:50:06.408Z,526.13
2023-01-07T18:52:36.121Z,514.65
2023-01-07T18:55:06.127Z,521.10
2023-01-07T18:57:34.461Z,541.38
2023-01-07T19:00:02.970Z,524.47
2023-01-07T19:02:31.425Z,520.45
2023-01-07T19:04:59.873Z,526.58
2023-01-07T19:07:28.271Z,506.27
2023-01-07T19:09:56.735Z,532.88
2023-01-07T19:12:26.472Z,513.13
2023-01-07T19:14:54.872Z,506.25
2023-01-07T19:17:26.164Z,527.15
2023-01-07T19:19:54.444Z,504.70
2023-01-07T19:22:22.858Z,518.97
2023-01-07T19:24:51.224Z,507.10
2023-01-07T19:27:19.645Z,509.75
2023-01-07T19:29:49.353Z,535.83
2023-01-07T19:32:17.791Z,509.67
2023-01-07T19:34:46.156Z,518.60
2023-01-07T19:37:14.471Z,497.85
2023-01-07T19:39:42.841Z,504.55
2023-01-07T19:42:12.741Z,516.72
2023-01-07T19:44:41.643Z,504.08
2023-01-07T19:47:11.457Z,517.88
2023-01-07T19:49:39.858Z,502.30
2023-01-07T19:52:08.195Z,495.57
2023-01-07T19:54:36.598Z,513.40
2023-01-07T19:57:05.108Z,496.40
2023-01-07T19:59:34.980Z,531.17
2023-01-07T20:02:03.834Z,506.55
2023-01-07T20:04:33.703Z,13.60
2023-01-07T20:07:02.093Z,14.50
2023-01-07T20:09:30.449Z,11.60
2023-01-07T20:11:58.819Z,11.20
2023-01-07T20:14:27.192Z,9.95
2023-01-07T20:16:55.673Z,12.93
2023-01-07T20:19:24.281Z,20.65
2023-01-07T20:21:54.064Z,14.05
2023-01-07T20:24:22.424Z,10.70
2023-01-07T20:26:52.637Z,11.13
2023-01-07T20:29:22.703Z,9.00
2023-01-07T20:31:51.531Z,8.40
2023-01-07T20:34:20.022Z,11.25
2023-01-07T20:36:48.542Z,8.32
2023-01-07T20:39:18.281Z,9.55
2023-01-07T20:41:46.672Z,8.48
2023-01-07T20:44:15.086Z,10.30
2023-01-07T20:46:43.581Z,8.60
2023-01-07T20:49:12.511Z,8.20
2023-01-07T20:51:40.914Z,11.02
2023-01-07T20:54:10.658Z,11.27
2023-01-07T20:56:40.563Z,22.90
2023-01-07T20:59:08.945Z,23.23
2023-01-07T21:01:37.426Z,23.30
2023-01-07T21:04:06.060Z,19.33
2023-01-07T21:06:34.414Z,14.35
2023-01-07T21:09:02.780Z,14.60
2023-01-07T21:11:31.396Z,12.50
2023-01-07T21:14:01.178Z,12.15
2023-01-07T21:16:29.816Z,10.35
2023-01-07T21:18:58.353Z,13.38
2023-01-07T21:21:26.988Z,13.98
2023-01-07T21:23:55.840Z,10.07
2023-01-07T21:26:24.882Z,10.63
2023-01-07T21:28:55.994Z,9.18
2023-01-07T21:31:26.696Z,11.75
2023-01-07T21:33:56.320Z,8.90
2023-01-07T21:36:25.407Z,9.35
2023-01-07T21:38:55.148Z,10.35
2023-01-07T21:41:24.041Z,11.52
2023-01-07T21:43:52.358Z,9.65
2023-01-07T21:46:22.572Z,12.43
2023-01-07T21:48:52.915Z,12.93
2023-01-07T21:51:22.327Z,11.35
2023-01-07T21:53:52.368Z,15.80
2023-01-07T21:56:21.235Z,14.18
2023-01-07T21:58:50.147Z,14.48
2023-01-07T22:01:19.144Z,16.67
2023-01-07T22:03:48.631Z,15.55
2023-01-07T22:06:19.539Z,16.83
2023-01-07T22:08:48.121Z,16.42
2023-01-07T22:11:16.937Z,17.73
2023-01-07T22:13:45.452Z,20.63
2023-01-07T22:16:14.042Z,17.63
2023-01-07T22:18:42.415Z,16.05
2023-01-07T22:21:10.761Z,15.00
2023-01-07T22:23:40.483Z,16.00
2023-01-07T22:26:09.763Z,14.98
2023-01-07T22:28:38.950Z,13.45
2023-01-07T22:31:09.946Z,13.00
2023-01-07T22:33:38.284Z,13.40
2023-01-07T22:36:07.034Z,12.52
2023-01-07T22:38:35.426Z,15.07
2023-01-07T22:41:05.467Z,13.68
2023-01-07T22:43:34.121Z,13.75
2023-01-07T22:46:05.278Z,12.80
2023-01-07T22:48:34.782Z,14.35
2023-01-07T22:51:04.831Z,14.10
2023-01-07T22:53:33.631Z,13.27
2023-01-07T22:56:02.139Z,10.23
2023-01-07T22:58:32.299Z,12.50
2023-01-07T23:01:14.373Z,14.32
2023-01-07T23:03:42.913Z,13.63
2023-01-07T23:06:12.782Z,11.10
2023-01-07T23:08:41.592Z,14.93
2023-01-07T23:11:10.689Z,11.65
2023-01-07T23:13:40.386Z,12.90
2023-01-07T23:16:08.951Z,13.82
2023-01-07T23:18:37.388Z,16.42
2023-01-07T23:21:06.043Z,11.30
2023-01-07T23:23:34.587Z,12.98
2023-01-07T23:26:02.907Z,11.52
2023-01-07T23:28:31.241Z,14.00
2023-01-07T23:31:03.409Z,12.80
2023-01-07T23:33:31.824Z,9.90
2023-01-07T23:36:03.722Z,11.25
2023-01-07T23:38:32.525Z,11.40
2023-01-07T23:41:01.403Z,10.85
2023-01-07T23:43:29.756Z,13.30
2023-01-07T23:45:58.890Z,12.63
2023-01-07T23:48:28.930Z,11.75
2023-01-07T23:50:57.796Z,13.30
2023-01-07T23:53:26.854Z,10.90
2023-01-07T23:55:55.919Z,11.38
2023-01-07T23:58:24.861Z,10.65
